Schertz, Texas
Current Conditions -  °F | °C
As of 1:58 AM on Thursday 27 Nov 2014 (Local Time) from KRND Reporting Station
Clear Clear  
Wind Chill: 51°   Ceiling: Unl
Heat Index: 51°   Visibility: 10mi
Dew Point: 33°   Wind: 9mph
Humidity: 49%   Direction: 30°NNE
Pressure: 30.37"   Gusts: NA
Location:  29.57°N, 98.27°W
Report Text: KRND 270758Z AUTO 03008KT 10SM CLR 11/00 A3037 RMK AO2 SLP282 T01070004
Loading
Personal Weather Stations






























Interactive Weather Map New forecast layout! Learn more

10-Day Weather Forecast

Advertisements
Track Severe Weather on mobile